sensor_id;sensor_type;location;lat;lon;timestamp;temperature;humidity
81311;DHT22;70779;52.506;5.492;2024-02-16T02:16:10;13.50;68.90
81311;DHT22;70779;52.506;5.492;2024-02-16T02:18:37;13.30;69.00
81311;DHT22;70779;52.506;5.492;2024-02-16T02:21:03;13.20;69.10
81311;DHT22;70779;52.506;5.492;2024-02-16T02:23:29;13.20;69.20
81311;DHT22;70779;52.506;5.492;2024-02-16T02:25:55;13.30;69.20
81311;DHT22;70779;52.506;5.492;2024-02-16T02:28:21;13.30;69.30
81311;DHT22;70779;52.506;5.492;2024-02-16T02:30:49;13.30;69.20
81311;DHT22;70779;52.506;5.492;2024-02-16T02:33:15;13.50;68.90
81311;DHT22;70779;52.506;5.492;2024-02-16T02:35:42;13.50;68.70
81311;DHT22;70779;52.506;5.492;2024-02-16T02:38:08;13.50;68.70
81311;DHT22;70779;52.506;5.492;2024-02-16T02:40:35;13.60;68.60
81311;DHT22;70779;52.506;5.492;2024-02-16T02:43:02;13.60;68.50
81311;DHT22;70779;52.506;5.492;2024-02-16T02:45:29;13.60;68.30
81311;DHT22;70779;52.506;5.492;2024-02-16T02:47:56;13.50;68.40
81311;DHT22;70779;52.506;5.492;2024-02-16T02:50:22;13.50;68.40
81311;DHT22;70779;52.506;5.492;2024-02-16T02:52:50;13.50;68.40
81311;DHT22;70779;52.506;5.492;2024-02-16T02:55:16;13.50;68.40
81311;DHT22;70779;52.506;5.492;2024-02-16T02:57:42;13.60;68.40
81311;DHT22;70779;52.506;5.492;2024-02-16T03:00:09;13.50;68.30
81311;DHT22;70779;52.506;5.492;2024-02-16T03:02:37;13.50;68.30
81311;DHT22;70779;52.506;5.492;2024-02-16T03:05:07;13.50;68.30
81311;DHT22;70779;52.506;5.492;2024-02-16T03:07:34;13.50;68.30
81311;DHT22;70779;52.506;5.492;2024-02-16T03:10:00;13.50;68.40
81311;DHT22;70779;52.506;5.492;2024-02-16T03:12:26;13.30;68.40
81311;DHT22;70779;52.506;5.492;2024-02-16T03:14:52;13.30;68.50
81311;DHT22;70779;52.506;5.492;2024-02-16T03:17:19;13.30;68.60
81311;DHT22;70779;52.506;5.492;2024-02-16T03:19:45;13.10;68.70
81311;DHT22;70779;52.506;5.492;2024-02-16T03:22:11;13.10;68.90
81311;DHT22;70779;52.506;5.492;2024-02-16T03:24:38;13.10;69.00
81311;DHT22;70779;52.506;5.492;2024-02-16T03:27:04;13.00;69.10
81311;DHT22;70779;52.506;5.492;2024-02-16T03:29:31;13.00;69.10
81311;DHT22;70779;52.506;5.492;2024-02-16T03:31:57;13.00;69.30
81311;DHT22;70779;52.506;5.492;2024-02-16T03:34:23;13.00;69.30
81311;DHT22;70779;52.506;5.492;2024-02-16T03:36:50;13.00;69.30
81311;DHT22;70779;52.506;5.492;2024-02-16T03:39:16;13.00;69.30
81311;DHT22;70779;52.506;5.492;2024-02-16T03:41:46;13.00;69.20
81311;DHT22;70779;52.506;5.492;2024-02-16T03:44:15;13.10;69.30
81311;DHT22;70779;52.506;5.492;2024-02-16T03:46:42;13.10;69.20
81311;DHT22;70779;52.506;5.492;2024-02-16T03:49:09;13.10;69.20
81311;DHT22;70779;52.506;5.492;2024-02-16T03:51:36;13.20;69.10
81311;DHT22;70779;52.506;5.492;2024-02-16T03:54:03;13.20;68.90
81311;DHT22;70779;52.506;5.492;2024-02-16T03:56:30;13.30;68.80
81311;DHT22;70779;52.506;5.492;2024-02-16T03:58:56;13.20;68.70
81311;DHT22;70779;52.506;5.492;2024-02-16T04:01:23;13.10;68.70
81311;DHT22;70779;52.506;5.492;2024-02-16T04:03:49;13.10;68.70
81311;DHT22;70779;52.506;5.492;2024-02-16T04:06:15;13.10;68.80
81311;DHT22;70779;52.506;5.492;2024-02-16T04:08:41;13.00;69.00
81311;DHT22;70779;52.506;5.492;2024-02-16T04:11:07;13.00;69.00
81311;DHT22;70779;52.506;5.492;2024-02-16T04:13:33;13.10;69.10
81311;DHT22;70779;52.506;5.492;2024-02-16T04:15:59;13.10;69.20
81311;DHT22;70779;52.506;5.492;2024-02-16T04:18:26;13.10;69.10
81311;DHT22;70779;52.506;5.492;2024-02-16T04:20:52;13.20;69.00
81311;DHT22;70779;52.506;5.492;2024-02-16T04:23:18;13.20;68.90
81311;DHT22;70779;52.506;5.492;2024-02-16T04:25:44;13.20;68.90
81311;DHT22;70779;52.506;5.492;2024-02-16T04:28:10;13.30;68.90
81311;DHT22;70779;52.506;5.492;2024-02-16T04:30:36;13.30;68.80
81311;DHT22;70779;52.506;5.492;2024-02-16T04:33:02;13.30;68.70
81311;DHT22;70779;52.506;5.492;2024-02-16T04:35:30;13.30;68.60
81311;DHT22;70779;52.506;5.492;2024-02-16T04:37:56;13.30;68.70
81311;DHT22;70779;52.506;5.492;2024-02-16T04:40:22;13.30;68.70
81311;DHT22;70779;52.506;5.492;2024-02-16T04:42:48;13.30;68.70
81311;DHT22;70779;52.506;5.492;2024-02-16T04:45:14;13.30;68.70
81311;DHT22;70779;52.506;5.492;2024-02-16T04:47:40;13.30;68.70
81311;DHT22;70779;52.506;5.492;2024-02-16T04:50:07;13.40;68.50
81311;DHT22;70779;52.506;5.492;2024-02-16T04:52:37;13.40;68.40
81311;DHT22;70779;52.506;5.492;2024-02-16T04:55:05;13.50;68.20
81311;DHT22;70779;52.506;5.492;2024-02-16T04:57:33;13.50;68.10
81311;DHT22;70779;52.506;5.492;2024-02-16T04:59:59;13.50;68.00
81311;DHT22;70779;52.506;5.492;2024-02-16T05:02:25;13.50;68.00
81311;DHT22;70779;52.506;5.492;2024-02-16T05:04:51;13.50;68.00
81311;DHT22;70779;52.506;5.492;2024-02-16T05:07:17;13.50;68.00
81311;DHT22;70779;52.506;5.492;2024-02-16T05:09:43;13.60;68.00
81311;DHT22;70779;52.506;5.492;2024-02-16T05:12:10;13.60;67.70
81311;DHT22;70779;52.506;5.492;2024-02-16T05:14:36;13.60;67.70
81311;DHT22;70779;52.506;5.492;2024-02-16T05:17:02;13.60;67.50
81311;DHT22;70779;52.506;5.492;2024-02-16T05:19:32;13.60;67.40
81311;DHT22;70779;52.506;5.492;2024-02-16T05:21:58;13.60;67.50
81311;DHT22;70779;52.506;5.492;2024-02-16T05:24:24;13.60;67.50
81311;DHT22;70779;52.506;5.492;2024-02-16T05:26:51;13.60;67.60
81311;DHT22;70779;52.506;5.492;2024-02-16T05:29:17;13.60;67.50
81311;DHT22;70779;52.506;5.492;2024-02-16T05:31:43;13.60;67.40
81311;DHT22;70779;52.506;5.492;2024-02-16T05:34:09;13.50;67.40
81311;DHT22;70779;52.506;5.492;2024-02-16T05:36:35;13.50;67.40
81311;DHT22;70779;52.506;5.492;2024-02-16T05:39:02;13.50;67.50
81311;DHT22;70779;52.506;5.492;2024-02-16T05:41:35;13.40;67.50
81311;DHT22;70779;52.506;5.492;2024-02-16T05:44:03;13.30;67.50
81311;DHT22;70779;52.506;5.492;2024-02-16T05:46:29;13.20;67.70
81311;DHT22;70779;52.506;5.492;2024-02-16T05:48:55;13.10;67.80
81311;DHT22;70779;52.506;5.492;2024-02-16T05:51:21;13.10;67.90
81311;DHT22;70779;52.506;5.492;2024-02-16T05:53:47;13.00;68.00
81311;DHT22;70779;52.506;5.492;2024-02-16T05:56:13;13.00;68.20
81311;DHT22;70779;52.506;5.492;2024-02-16T05:58:39;12.90;68.30
81311;DHT22;70779;52.506;5.492;2024-02-16T06:01:06;12.90;68.40
81311;DHT22;70779;52.506;5.492;2024-02-16T06:03:32;12.80;68.50
81311;DHT22;70779;52.506;5.492;2024-02-16T06:05:58;12.80;68.70
81311;DHT22;70779;52.506;5.492;2024-02-16T06:08:24;12.80;68.70
81311;DHT22;70779;52.506;5.492;2024-02-16T06:10:51;12.80;68.80
81311;DHT22;70779;52.506;5.492;2024-02-16T06:13:20;12.70;68.90
81311;DHT22;70779;52.506;5.492;2024-02-16T06:15:47;12.70;69.00
81311;DHT22;70779;52.506;5.492;2024-02-16T06:18:13;12.70;69.00
81311;DHT22;70779;52.506;5.492;2024-02-16T06:20:39;12.70;69.10
81311;DHT22;70779;52.506;5.492;2024-02-16T06:23:05;12.70;69.10
81311;DHT22;70779;52.506;5.492;2024-02-16T06:25:32;12.80;69.10
81311;DHT22;70779;52.506;5.492;2024-02-16T06:27:58;12.90;69.10
81311;DHT22;70779;52.506;5.492;2024-02-16T06:30:24;12.90;69.10
81311;DHT22;70779;52.506;5.492;2024-02-16T06:32:50;12.90;69.00
81311;DHT22;70779;52.506;5.492;2024-02-16T06:35:16;13.00;68.90
81311;DHT22;70779;52.506;5.492;2024-02-16T06:37:42;13.00;68.80
81311;DHT22;70779;52.506;5.492;2024-02-16T06:40:09;13.00;68.90
81311;DHT22;70779;52.506;5.492;2024-02-16T06:42:38;13.00;68.80
81311;DHT22;70779;52.506;5.492;2024-02-16T06:45:04;13.10;68.80
81311;DHT22;70779;52.506;5.492;2024-02-16T06:47:31;13.10;68.80
81311;DHT22;70779;52.506;5.492;2024-02-16T06:49:57;13.10;68.80
81311;DHT22;70779;52.506;5.492;2024-02-16T06:52:24;13.10;68.80
81311;DHT22;70779;52.506;5.492;2024-02-16T06:54:50;13.10;68.80
81311;DHT22;70779;52.506;5.492;2024-02-16T06:57:17;13.10;68.70
81311;DHT22;70779;52.506;5.492;2024-02-16T06:59:43;13.20;68.70
81311;DHT22;70779;52.506;5.492;2024-02-16T07:02:09;13.20;68.60
81311;DHT22;70779;52.506;5.492;2024-02-16T07:04:39;13.30;68.80
81311;DHT22;70779;52.506;5.492;2024-02-16T07:07:05;13.30;68.90
81311;DHT22;70779;52.506;5.492;2024-02-16T07:09:32;13.30;68.90
81311;DHT22;70779;52.506;5.492;2024-02-16T07:11:58;13.40;68.90
81311;DHT22;70779;52.506;5.492;2024-02-16T07:14:24;13.50;68.80
81311;DHT22;70779;52.506;5.492;2024-02-16T07:16:50;13.50;68.70
81311;DHT22;70779;52.506;5.492;2024-02-16T07:19:16;13.60;68.70
81311;DHT22;70779;52.506;5.492;2024-02-16T07:21:44;13.60;68.50
81311;DHT22;70779;52.506;5.492;2024-02-16T07:24:10;13.70;68.40
81311;DHT22;70779;52.506;5.492;2024-02-16T07:26:36;13.70;68.00
81311;DHT22;70779;52.506;5.492;2024-02-16T07:29:02;13.70;68.00
81311;DHT22;70779;52.506;5.492;2024-02-16T07:31:35;13.70;68.00
81311;DHT22;70779;52.506;5.492;2024-02-16T07:34:01;13.70;68.00
81311;DHT22;70779;52.506;5.492;2024-02-16T07:36:28;13.70;68.00
81311;DHT22;70779;52.506;5.492;2024-02-16T07:38:54;13.70;68.00
81311;DHT22;70779;52.506;5.492;2024-02-16T07:41:21;13.70;68.00
81311;DHT22;70779;52.506;5.492;2024-02-16T07:43:47;13.70;68.10
81311;DHT22;70779;52.506;5.492;2024-02-16T07:46:13;13.80;68.10
81311;DHT22;70779;52.506;5.492;2024-02-16T07:48:40;13.90;68.10
81311;DHT22;70779;52.506;5.492;2024-02-16T07:51:06;13.90;68.00
81311;DHT22;70779;52.506;5.492;2024-02-16T07:53:33;13.90;68.00
81311;DHT22;70779;52.506;5.492;2024-02-16T07:56:00;14.00;68.00
81311;DHT22;70779;52.506;5.492;2024-02-16T07:58:26;14.00;67.90
81311;DHT22;70779;52.506;5.492;2024-02-16T08:00:52;14.10;67.90
81311;DHT22;70779;52.506;5.492;2024-02-16T08:03:20;14.10;67.90
81311;DHT22;70779;52.506;5.492;2024-02-16T08:05:46;14.20;67.80
81311;DHT22;70779;52.506;5.492;2024-02-16T08:08:12;14.30;67.60
81311;DHT22;70779;52.506;5.492;2024-02-16T08:10:38;14.30;67.60
81311;DHT22;70779;52.506;5.492;2024-02-16T08:13:04;14.40;67.40
81311;DHT22;70779;52.506;5.492;2024-02-16T08:15:30;14.40;67.30
81311;DHT22;70779;52.506;5.492;2024-02-16T08:17:57;14.40;67.30
81311;DHT22;70779;52.506;5.492;2024-02-16T08:20:23;14.40;67.30
81311;DHT22;70779;52.506;5.492;2024-02-16T08:22:49;14.40;67.30
81311;DHT22;70779;52.506;5.492;2024-02-16T08:25:15;14.50;67.30
81311;DHT22;70779;52.506;5.492;2024-02-16T08:27:41;14.50;67.40
81311;DHT22;70779;52.506;5.492;2024-02-16T08:30:08;14.50;67.40
81311;DHT22;70779;52.506;5.492;2024-02-16T08:32:37;14.60;67.30
81311;DHT22;70779;52.506;5.492;2024-02-16T08:35:03;14.60;67.30
81311;DHT22;70779;52.506;5.492;2024-02-16T08:37:30;14.70;67.20
81311;DHT22;70779;52.506;5.492;2024-02-16T08:39:56;14.70;67.30
81311;DHT22;70779;52.506;5.492;2024-02-16T08:42:22;14.80;67.10
81311;DHT22;70779;52.506;5.492;2024-02-16T08:44:49;14.80;67.00
81311;DHT22;70779;52.506;5.492;2024-02-16T08:47:15;14.90;67.00
81311;DHT22;70779;52.506;5.492;2024-02-16T08:49:42;14.90;66.90
81311;DHT22;70779;52.506;5.492;2024-02-16T08:52:08;15.00;66.70
81311;DHT22;70779;52.506;5.492;2024-02-16T08:54:34;15.00;66.70
81311;DHT22;70779;52.506;5.492;2024-02-16T08:57:00;15.20;66.50
81311;DHT22;70779;52.506;5.492;2024-02-16T08:59:26;15.30;66.40
81311;DHT22;70779;52.506;5.492;2024-02-16T09:01:54;15.30;66.40
81311;DHT22;70779;52.506;5.492;2024-02-16T09:04:20;15.40;66.30
81311;DHT22;70779;52.506;5.492;2024-02-16T09:06:46;15.50;66.40
81311;DHT22;70779;52.506;5.492;2024-02-16T09:09:14;15.60;66.00
81311;DHT22;70779;52.506;5.492;2024-02-16T09:11:41;15.80;65.80
81311;DHT22;70779;52.506;5.492;2024-02-16T09:14:07;15.90;65.40
81311;DHT22;70779;52.506;5.492;2024-02-16T09:16:33;16.00;65.40
81311;DHT22;70779;52.506;5.492;2024-02-16T09:18:59;16.10;65.40
81311;DHT22;70779;52.506;5.492;2024-02-16T09:21:25;16.30;65.00
81311;DHT22;70779;52.506;5.492;2024-02-16T09:23:54;16.40;64.80
81311;DHT22;70779;52.506;5.492;2024-02-16T09:26:24;16.60;64.50
81311;DHT22;70779;52.506;5.492;2024-02-16T09:28:52;16.70;64.00
81311;DHT22;70779;52.506;5.492;2024-02-16T09:31:19;16.80;63.70
81311;DHT22;70779;52.506;5.492;2024-02-16T09:33:45;16.70;63.50
81311;DHT22;70779;52.506;5.492;2024-02-16T09:36:11;16.70;63.50
81311;DHT22;70779;52.506;5.492;2024-02-16T09:38:37;16.70;63.70
81311;DHT22;70779;52.506;5.492;2024-02-16T09:41:03;16.70;63.60
81311;DHT22;70779;52.506;5.492;2024-02-16T09:43:30;16.70;63.70
81311;DHT22;70779;52.506;5.492;2024-02-16T09:45:57;16.70;63.60
81311;DHT22;70779;52.506;5.492;2024-02-16T09:48:26;16.70;63.70
81311;DHT22;70779;52.506;5.492;2024-02-16T09:50:57;16.60;63.90
81311;DHT22;70779;52.506;5.492;2024-02-16T09:53:27;16.60;63.90
81311;DHT22;70779;52.506;5.492;2024-02-16T09:55:53;16.50;64.20
81311;DHT22;70779;52.506;5.492;2024-02-16T09:58:20;16.40;64.40
81311;DHT22;70779;52.506;5.492;2024-02-16T10:00:50;16.40;64.40
81311;DHT22;70779;52.506;5.492;2024-02-16T10:03:24;16.40;64.60
81311;DHT22;70779;52.506;5.492;2024-02-16T10:05:52;16.30;64.80
81311;DHT22;70779;52.506;5.492;2024-02-16T10:08:19;16.40;65.00
81311;DHT22;70779;52.506;5.492;2024-02-16T10:10:46;16.40;65.10
81311;DHT22;70779;52.506;5.492;2024-02-16T10:13:12;16.40;65.10
81311;DHT22;70779;52.506;5.492;2024-02-16T10:15:38;16.40;65.00
81311;DHT22;70779;52.506;5.492;2024-02-16T10:18:05;16.40;64.80
81311;DHT22;70779;52.506;5.492;2024-02-16T10:20:32;16.40;64.80
81311;DHT22;70779;52.506;5.492;2024-02-16T10:23:10;16.30;64.90
81311;DHT22;70779;52.506;5.492;2024-02-16T10:25:40;16.10;65.20
81311;DHT22;70779;52.506;5.492;2024-02-16T10:28:09;16.10;65.40
81311;DHT22;70779;52.506;5.492;2024-02-16T10:30:37;16.00;65.70
81311;DHT22;70779;52.506;5.492;2024-02-16T10:33:05;15.90;65.80
81311;DHT22;70779;52.506;5.492;2024-02-16T10:35:37;15.80;65.90
81311;DHT22;70779;52.506;5.492;2024-02-16T10:38:06;15.80;66.00
81311;DHT22;70779;52.506;5.492;2024-02-16T10:40:33;15.60;66.30
81311;DHT22;70779;52.506;5.492;2024-02-16T10:43:04;15.60;66.60
81311;DHT22;70779;52.506;5.492;2024-02-16T10:45:34;15.40;67.00
81311;DHT22;70779;52.506;5.492;2024-02-16T10:48:02;15.20;67.50
81311;DHT22;70779;52.506;5.492;2024-02-16T10:50:29;15.10;68.10
81311;DHT22;70779;52.506;5.492;2024-02-16T10:52:56;14.90;68.80
81311;DHT22;70779;52.506;5.492;2024-02-16T10:55:24;14.70;69.20
81311;DHT22;70779;52.506;5.492;2024-02-16T10:57:50;14.60;69.90
81311;DHT22;70779;52.506;5.492;2024-02-16T11:00:19;14.40;70.30
81311;DHT22;70779;52.506;5.492;2024-02-16T11:02:58;14.30;70.80
81311;DHT22;70779;52.506;5.492;2024-02-16T11:05:40;14.20;71.20
81311;DHT22;70779;52.506;5.492;2024-02-16T11:08:19;14.20;71.60
81311;DHT22;70779;52.506;5.492;2024-02-16T11:13:23;14.10;72.00
81311;DHT22;70779;52.506;5.492;2024-02-16T11:16:17;14.00;72.20
81311;DHT22;70779;52.506;5.492;2024-02-16T11:18:46;13.90;72.50
81311;DHT22;70779;52.506;5.492;2024-02-16T11:21:16;13.90;72.60
81311;DHT22;70779;52.506;5.492;2024-02-16T11:23:42;13.90;72.80
81311;DHT22;70779;52.506;5.492;2024-02-16T11:26:10;14.00;72.90
81311;DHT22;70779;52.506;5.492;2024-02-16T11:28:38;14.00;73.00
81311;DHT22;70779;52.506;5.492;2024-02-16T11:31:06;14.10;72.80
81311;DHT22;70779;52.506;5.492;2024-02-16T11:33:34;14.20;72.60
81311;DHT22;70779;52.506;5.492;2024-02-16T11:36:01;14.20;72.60
81311;DHT22;70779;52.506;5.492;2024-02-16T11:38:32;14.30;72.50
81311;DHT22;70779;52.506;5.492;2024-02-16T11:41:04;14.40;72.40
81311;DHT22;70779;52.506;5.492;2024-02-16T11:43:31;14.40;72.20
81311;DHT22;70779;52.506;5.492;2024-02-16T11:45:58;14.40;72.20
81311;DHT22;70779;52.506;5.492;2024-02-16T11:48:27;14.40;72.10
81311;DHT22;70779;52.506;5.492;2024-02-16T11:51:03;14.40;72.20
81311;DHT22;70779;52.506;5.492;2024-02-16T11:53:30;14.40;72.30
81311;DHT22;70779;52.506;5.492;2024-02-16T11:55:57;14.50;72.30
81311;DHT22;70779;52.506;5.492;2024-02-16T11:58:24;14.50;72.20
81311;DHT22;70779;52.506;5.492;2024-02-16T12:00:51;14.60;72.10
81311;DHT22;70779;52.506;5.492;2024-02-16T12:03:24;14.60;71.90
81311;DHT22;70779;52.506;5.492;2024-02-16T12:05:58;14.60;71.90
81311;DHT22;70779;52.506;5.492;2024-02-16T12:08:32;14.50;71.90
81311;DHT22;70779;52.506;5.492;2024-02-16T12:10:59;14.50;71.90
81311;DHT22;70779;52.506;5.492;2024-02-16T12:13:25;14.50;71.70
81311;DHT22;70779;52.506;5.492;2024-02-16T12:15:51;14.40;71.80
81311;DHT22;70779;52.506;5.492;2024-02-16T12:18:25;14.40;72.00
81311;DHT22;70779;52.506;5.492;2024-02-16T12:21:02;14.30;72.10
81311;DHT22;70779;52.506;5.492;2024-02-16T12:23:29;14.30;72.10
81311;DHT22;70779;52.506;5.492;2024-02-16T12:25:59;14.20;72.30
81311;DHT22;70779;52.506;5.492;2024-02-16T12:28:27;14.20;72.40
81311;DHT22;70779;52.506;5.492;2024-02-16T12:30:55;14.10;72.70
81311;DHT22;70779;52.506;5.492;2024-02-16T12:33:22;14.10;72.90
81311;DHT22;70779;52.506;5.492;2024-02-16T12:35:48;14.00;73.10
81311;DHT22;70779;52.506;5.492;2024-02-16T12:38:14;14.10;73.30
81311;DHT22;70779;52.506;5.492;2024-02-16T12:40:46;14.10;73.30
81311;DHT22;70779;52.506;5.492;2024-02-16T12:43:12;14.20;73.50
81311;DHT22;70779;52.506;5.492;2024-02-16T12:45:43;14.30;73.30
81311;DHT22;70779;52.506;5.492;2024-02-16T12:48:09;14.40;73.20
81311;DHT22;70779;52.506;5.492;2024-02-16T12:50:40;14.50;73.00
81311;DHT22;70779;52.506;5.492;2024-02-16T12:53:08;14.60;72.60
81311;DHT22;70779;52.506;5.492;2024-02-16T12:55:34;14.60;72.50
81311;DHT22;70779;52.506;5.492;2024-02-16T12:58:01;14.70;72.20
81311;DHT22;70779;52.506;5.492;2024-02-16T13:00:28;14.80;72.30
81311;DHT22;70779;52.506;5.492;2024-02-16T13:02:54;14.90;72.20
81311;DHT22;70779;52.506;5.492;2024-02-16T13:05:20;14.90;72.00
81311;DHT22;70779;52.506;5.492;2024-02-16T13:07:47;15.00;72.00
81311;DHT22;70779;52.506;5.492;2024-02-16T13:10:13;15.00;71.70
81311;DHT22;70779;52.506;5.492;2024-02-16T13:12:39;15.10;71.60
81311;DHT22;70779;52.506;5.492;2024-02-16T13:15:07;15.10;71.50
81311;DHT22;70779;52.506;5.492;2024-02-16T13:17:34;15.20;71.00
81311;DHT22;70779;52.506;5.492;2024-02-16T13:20:00;15.20;70.70
81311;DHT22;70779;52.506;5.492;2024-02-16T13:22:36;15.10;70.50
81311;DHT22;70779;52.506;5.492;2024-02-16T13:25:05;15.00;70.70
81311;DHT22;70779;52.506;5.492;2024-02-16T13:27:32;15.00;70.90
81311;DHT22;70779;52.506;5.492;2024-02-16T13:30:00;15.00;70.90
81311;DHT22;70779;52.506;5.492;2024-02-16T13:32:26;15.00;70.90
81311;DHT22;70779;52.506;5.492;2024-02-16T13:34:52;15.00;70.60
81311;DHT22;70779;52.506;5.492;2024-02-16T13:37:19;15.00;70.50
81311;DHT22;70779;52.506;5.492;2024-02-16T13:39:45;15.00;70.60
81311;DHT22;70779;52.506;5.492;2024-02-16T13:42:12;15.00;70.60
81311;DHT22;70779;52.506;5.492;2024-02-16T13:44:39;15.00;70.30
81311;DHT22;70779;52.506;5.492;2024-02-16T13:47:05;15.00;70.20
81311;DHT22;70779;52.506;5.492;2024-02-16T13:49:31;15.00;70.20
81311;DHT22;70779;52.506;5.492;2024-02-16T13:51:57;15.00;70.20
81311;DHT22;70779;52.506;5.492;2024-02-16T13:54:25;15.10;70.10
81311;DHT22;70779;52.506;5.492;2024-02-16T13:56:51;15.00;69.90
81311;DHT22;70779;52.506;5.492;2024-02-16T13:59:19;15.00;70.00
81311;DHT22;70779;52.506;5.492;2024-02-16T14:01:45;15.10;69.90
81311;DHT22;70779;52.506;5.492;2024-02-16T14:04:12;15.10;69.90
81311;DHT22;70779;52.506;5.492;2024-02-16T14:06:39;15.10;69.70
81311;DHT22;70779;52.506;5.492;2024-02-16T14:09:05;15.10;69.60
81311;DHT22;70779;52.506;5.492;2024-02-16T14:11:35;15.10;69.60
81311;DHT22;70779;52.506;5.492;2024-02-16T14:14:02;15.00;69.60
81311;DHT22;70779;52.506;5.492;2024-02-16T14:16:28;15.00;69.80
81311;DHT22;70779;52.506;5.492;2024-02-16T14:18:56;15.00;69.80
81311;DHT22;70779;52.506;5.492;2024-02-16T14:21:22;15.00;69.60
81311;DHT22;70779;52.506;5.492;2024-02-16T14:23:48;15.00;69.90
81311;DHT22;70779;52.506;5.492;2024-02-16T14:26:15;15.00;69.90
81311;DHT22;70779;52.506;5.492;2024-02-16T14:28:41;15.00;69.80
81311;DHT22;70779;52.506;5.492;2024-02-16T14:31:07;14.90;69.80
81311;DHT22;70779;52.506;5.492;2024-02-16T14:33:33;14.90;69.80
81311;DHT22;70779;52.506;5.492;2024-02-16T14:36:01;14.90;69.90
81311;DHT22;70779;52.506;5.492;2024-02-16T14:38:28;14.90;70.00
81311;DHT22;70779;52.506;5.492;2024-02-16T14:40:54;15.00;69.90
81311;DHT22;70779;52.506;5.492;2024-02-16T14:43:20;15.00;69.80
81311;DHT22;70779;52.506;5.492;2024-02-16T14:45:46;15.10;69.70
81311;DHT22;70779;52.506;5.492;2024-02-16T14:48:12;15.10;69.60
81311;DHT22;70779;52.506;5.492;2024-02-16T14:50:38;15.10;69.60
81311;DHT22;70779;52.506;5.492;2024-02-16T14:53:05;15.20;69.40
81311;DHT22;70779;52.506;5.492;2024-02-16T14:55:31;15.20;69.40
81311;DHT22;70779;52.506;5.492;2024-02-16T14:57:57;15.10;69.50
81311;DHT22;70779;52.506;5.492;2024-02-16T15:00:23;15.20;69.40
81311;DHT22;70779;52.506;5.492;2024-02-16T15:02:50;15.10;69.30
81311;DHT22;70779;52.506;5.492;2024-02-16T15:05:17;15.10;69.30
81311;DHT22;70779;52.506;5.492;2024-02-16T15:07:43;15.10;69.30
81311;DHT22;70779;52.506;5.492;2024-02-16T15:10:09;15.10;69.20
81311;DHT22;70779;52.506;5.492;2024-02-16T15:12:36;15.00;69.40
81311;DHT22;70779;52.506;5.492;2024-02-16T15:15:06;15.00;69.30
81311;DHT22;70779;52.506;5.492;2024-02-16T15:17:32;15.00;69.40
81311;DHT22;70779;52.506;5.492;2024-02-16T15:19:58;15.10;69.40
81311;DHT22;70779;52.506;5.492;2024-02-16T15:22:25;15.00;69.40
81311;DHT22;70779;52.506;5.492;2024-02-16T15:24:52;15.10;69.10
81311;DHT22;70779;52.506;5.492;2024-02-16T15:27:18;15.10;69.10
81311;DHT22;70779;52.506;5.492;2024-02-16T15:29:44;15.00;69.00
81311;DHT22;70779;52.506;5.492;2024-02-16T15:32:10;15.00;69.00
81311;DHT22;70779;52.506;5.492;2024-02-16T15:34:36;15.00;69.00
81311;DHT22;70779;52.506;5.492;2024-02-16T15:37:03;14.90;69.20
81311;DHT22;70779;52.506;5.492;2024-02-16T15:39:29;14.90;69.40
81311;DHT22;70779;52.506;5.492;2024-02-16T15:41:55;14.90;69.60
81311;DHT22;70779;52.506;5.492;2024-02-16T15:44:21;14.80;69.60
81311;DHT22;70779;52.506;5.492;2024-02-16T15:46:48;14.80;69.60
81311;DHT22;70779;52.506;5.492;2024-02-16T15:49:14;14.80;69.70
81311;DHT22;70779;52.506;5.492;2024-02-16T15:51:40;14.80;69.90
81311;DHT22;70779;52.506;5.492;2024-02-16T15:54:06;14.80;70.00
81311;DHT22;70779;52.506;5.492;2024-02-16T15:56:32;14.80;70.00
81311;DHT22;70779;52.506;5.492;2024-02-16T15:58:58;14.80;70.00
81311;DHT22;70779;52.506;5.492;2024-02-16T16:01:27;14.80;70.10
81311;DHT22;70779;52.506;5.492;2024-02-16T16:03:54;14.80;70.00
81311;DHT22;70779;52.506;5.492;2024-02-16T16:06:21;14.80;70.00
81311;DHT22;70779;52.506;5.492;2024-02-16T16:08:47;14.80;70.00
81311;DHT22;70779;52.506;5.492;2024-02-16T16:11:13;14.80;70.10
81311;DHT22;70779;52.506;5.492;2024-02-16T16:13:40;14.80;70.10
81311;DHT22;70779;52.506;5.492;2024-02-16T16:16:07;14.80;70.20
81311;DHT22;70779;52.506;5.492;2024-02-16T16:18:34;14.80;70.20
81311;DHT22;70779;52.506;5.492;2024-02-16T16:21:01;14.80;70.20
81311;DHT22;70779;52.506;5.492;2024-02-16T16:23:29;14.80;70.20
81311;DHT22;70779;52.506;5.492;2024-02-16T16:25:56;14.70;70.20
81311;DHT22;70779;52.506;5.492;2024-02-16T16:28:23;14.70;70.30
81311;DHT22;70779;52.506;5.492;2024-02-16T16:30:49;14.70;70.40
81311;DHT22;70779;52.506;5.492;2024-02-16T16:33:15;14.70;70.30
81311;DHT22;70779;52.506;5.492;2024-02-16T16:35:41;14.60;70.40
81311;DHT22;70779;52.506;5.492;2024-02-16T16:38:08;14.60;70.40
81311;DHT22;70779;52.506;5.492;2024-02-16T16:40:38;14.60;70.50
81311;DHT22;70779;52.506;5.492;2024-02-16T16:43:04;14.60;70.40
81311;DHT22;70779;52.506;5.492;2024-02-16T16:45:31;14.60;70.30
81311;DHT22;70779;52.506;5.492;2024-02-16T16:47:58;14.60;70.40
81311;DHT22;70779;52.506;5.492;2024-02-16T16:50:24;14.50;70.40
81311;DHT22;70779;52.506;5.492;2024-02-16T16:52:50;14.50;70.40
81311;DHT22;70779;52.506;5.492;2024-02-16T16:55:16;14.50;70.40
81311;DHT22;70779;52.506;5.492;2024-02-16T16:57:42;14.40;70.40
81311;DHT22;70779;52.506;5.492;2024-02-16T17:00:09;14.40;70.50
81311;DHT22;70779;52.506;5.492;2024-02-16T17:02:35;14.40;70.60
81311;DHT22;70779;52.506;5.492;2024-02-16T17:05:01;14.30;70.60
81311;DHT22;70779;52.506;5.492;2024-02-16T17:07:28;14.30;70.40
81311;DHT22;70779;52.506;5.492;2024-02-16T17:09:54;14.30;70.40
81311;DHT22;70779;52.506;5.492;2024-02-16T17:12:26;14.20;70.50
81311;DHT22;70779;52.506;5.492;2024-02-16T17:14:53;14.10;70.50
81311;DHT22;70779;52.506;5.492;2024-02-16T17:17:19;14.00;70.60
81311;DHT22;70779;52.506;5.492;2024-02-16T17:19:46;14.00;70.70
81311;DHT22;70779;52.506;5.492;2024-02-16T17:22:12;13.90;70.80
81311;DHT22;70779;52.506;5.492;2024-02-16T17:24:38;13.90;70.90
81311;DHT22;70779;52.506;5.492;2024-02-16T17:27:05;13.90;70.90
81311;DHT22;70779;52.506;5.492;2024-02-16T17:29:31;13.80;70.90
81311;DHT22;70779;52.506;5.492;2024-02-16T17:31:58;13.60;71.00
81311;DHT22;70779;52.506;5.492;2024-02-16T17:34:24;13.60;71.20
81311;DHT22;70779;52.506;5.492;2024-02-16T17:36:51;13.50;71.40
81311;DHT22;70779;52.506;5.492;2024-02-16T17:39:18;13.50;71.60
81311;DHT22;70779;52.506;5.492;2024-02-16T17:41:48;13.50;71.70
81311;DHT22;70779;52.506;5.492;2024-02-16T17:44:14;13.50;71.70
81311;DHT22;70779;52.506;5.492;2024-02-16T17:46:40;13.50;71.70